Time;durP1;ratioP1;P1;durP2;ratioP2;P2;SDS_P1;SDS_P2;PMS_P1;PMS_P2;Temp;Humidity;BMP_temperature;BMP_pressure;BME280_temperature;BME280_humidity;BME280_pressure;Samples;Min_cycle;Max_cycle;Signal;HPM_P1;HPM_P2
2023/03/11 00:00:12;;;;;;;1.20;0.70;;;2.20;99.90;;;;;;5082765;28;20531;-71
2023/03/11 00:02:39;;;;;;;1.20;1.10;;;2.10;99.90;;;;;;5088330;28;20435;-71
2023/03/11 00:05:07;;;;;;;1.10;1.00;;;2.10;99.90;;;;;;5078604;28;20438;-71
2023/03/11 00:07:36;;;;;;;1.50;1.40;;;2.10;99.90;;;;;;5089117;28;20477;-71
2023/03/11 00:10:04;;;;;;;1.23;1.13;;;2.10;99.90;;;;;;5088098;28;20424;-72
2023/03/11 00:12:32;;;;;;;1.87;1.77;;;2.20;99.90;;;;;;5089142;28;20456;-71
2023/03/11 00:14:59;;;;;;;1.10;1.00;;;2.20;99.90;;;;;;5083625;28;20442;-71
2023/03/11 00:17:26;;;;;;;2.50;1.83;;;2.20;99.90;;;;;;5081613;28;20535;-72
2023/03/11 00:19:53;;;;;;;1.77;1.50;;;2.20;99.90;;;;;;5084080;28;20981;-71
2023/03/11 00:22:20;;;;;;;1.07;0.97;;;2.30;99.90;;;;;;5086660;28;20450;-71
2023/03/11 00:24:47;;;;;;;2.33;1.47;;;2.30;99.90;;;;;;5085382;28;20517;-71
2023/03/11 00:27:14;;;;;;;1.57;1.00;;;2.20;99.90;;;;;;5077457;28;20448;-71
2023/03/11 00:29:42;;;;;;;3.23;2.17;;;2.30;99.90;;;;;;5086448;28;20457;-71
2023/03/11 00:32:09;;;;;;;2.17;1.70;;;2.30;99.90;;;;;;5086919;28;20442;-71
2023/03/11 00:34:36;;;;;;;1.70;1.27;;;2.20;99.90;;;;;;5092190;28;20971;-71
2023/03/11 00:37:03;;;;;;;1.60;1.50;;;2.20;99.90;;;;;;5094736;28;20436;-71
2023/03/11 00:39:30;;;;;;;2.90;1.53;;;2.20;99.90;;;;;;5088652;28;20556;-71
2023/03/11 00:41:57;;;;;;;1.70;1.60;;;2.20;99.90;;;;;;5093789;28;20425;-71
2023/03/11 00:44:24;;;;;;;1.53;1.43;;;2.20;99.90;;;;;;5082470;28;20983;-71
2023/03/11 00:46:52;;;;;;;1.83;1.63;;;2.20;99.90;;;;;;5088705;28;20447;-71
2023/03/11 00:49:19;;;;;;;3.03;1.50;;;2.10;99.90;;;;;;5073238;28;20441;-71
2023/03/11 00:51:46;;;;;;;1.70;1.60;;;2.20;99.90;;;;;;5081578;28;20494;-71
2023/03/11 00:54:13;;;;;;;2.30;2.10;;;2.20;99.90;;;;;;5082180;28;20433;-71
2023/03/11 00:56:41;;;;;;;1.63;1.10;;;2.30;99.90;;;;;;5104666;28;20463;-71
2023/03/11 00:59:09;;;;;;;2.80;2.47;;;2.30;99.90;;;;;;5093758;28;20493;-71
2023/03/11 01:01:37;;;;;;;2.50;1.00;;;2.20;99.90;;;;;;5082817;28;20525;-71
2023/03/11 01:04:05;;;;;;;3.23;1.80;;;2.20;99.90;;;;;;5086343;28;20421;-71
2023/03/11 01:06:32;;;;;;;4.10;2.33;;;2.10;99.90;;;;;;5080803;28;20492;-71
2023/03/11 01:08:59;;;;;;;3.70;1.80;;;2.10;99.90;;;;;;5081609;28;20930;-71
2023/03/11 01:11:26;;;;;;;1.10;1.00;;;2.20;99.90;;;;;;5080029;28;20851;-71
2023/03/11 01:13:53;;;;;;;1.10;0.97;;;2.20;99.90;;;;;;5089728;28;20427;-71
2023/03/11 01:16:20;;;;;;;3.70;1.70;;;2.20;99.90;;;;;;5087525;28;20797;-71
2023/03/11 01:18:47;;;;;;;1.77;1.10;;;2.20;99.90;;;;;;5088203;28;20558;-72
2023/03/11 01:21:20;;;;;;;3.20;1.50;;;2.10;99.90;;;;;;5082487;28;20447;-71
2023/03/11 01:23:47;;;;;;;4.43;2.93;;;2.10;99.90;;;;;;5086759;28;20461;-71
2023/03/11 01:26:14;;;;;;;1.90;1.80;;;2.10;99.90;;;;;;5082465;28;20448;-72
2023/03/11 01:28:41;;;;;;;2.00;1.53;;;2.20;99.90;;;;;;5078997;28;20461;-71
2023/03/11 01:31:09;;;;;;;6.13;1.93;;;2.20;99.90;;;;;;5086308;28;20460;-71
2023/03/11 01:33:36;;;;;;;2.10;2.00;;;2.20;99.90;;;;;;5084911;28;20421;-71
2023/03/11 01:36:04;;;;;;;1.57;1.47;;;2.20;99.90;;;;;;5081283;28;20414;-71
2023/03/11 01:38:32;;;;;;;5.07;2.27;;;2.30;99.90;;;;;;5091203;28;20893;-71
2023/03/11 01:40:59;;;;;;;1.57;1.47;;;2.30;99.90;;;;;;5092277;28;20867;-71
2023/03/11 01:43:49;;;;;;;1.70;1.47;;;2.30;99.90;;;;;;5092012;28;20463;-71
2023/03/11 01:46:19;;;;;;;1.93;1.43;;;2.40;99.90;;;;;;5082810;28;20900;-71
2023/03/11 01:48:48;;;;;;;1.93;1.83;;;2.40;99.90;;;;;;5078155;28;20451;-71
2023/03/11 01:51:17;;;;;;;1.43;1.20;;;2.20;99.90;;;;;;5088401;28;20524;-71
2023/03/11 01:53:46;;;;;;;3.73;1.83;;;2.20;99.90;;;;;;5089070;28;20428;-71
2023/03/11 01:56:14;;;;;;;2.80;1.37;;;2.20;99.90;;;;;;5082222;28;20477;-71
2023/03/11 01:58:45;;;;;;;1.90;1.73;;;2.20;99.90;;;;;;5082002;28;20436;-71
2023/03/11 02:01:13;;;;;;;1.20;1.10;;;2.20;99.90;;;;;;5078134;28;20470;-71
2023/03/11 02:03:41;;;;;;;2.30;1.20;;;2.20;99.90;;;;;;5083367;28;20453;-71
2023/03/11 02:06:12;;;;;;;2.20;1.80;;;2.30;99.90;;;;;;5072021;28;20453;-71
2023/03/11 02:08:41;;;;;;;3.67;1.67;;;2.30;99.90;;;;;;5080344;28;20453;-71
2023/03/11 02:11:12;;;;;;;2.20;1.70;;;2.50;99.90;;;;;;5090235;28;20439;-71
2023/03/11 02:13:40;;;;;;;1.60;1.07;;;2.40;99.90;;;;;;5078427;28;20435;-71
2023/03/11 02:16:08;;;;;;;1.37;1.00;;;2.40;99.90;;;;;;5089247;28;20470;-71
2023/03/11 02:18:35;;;;;;;1.27;0.90;;;2.50;99.90;;;;;;5079868;28;20450;-71
2023/03/11 02:21:13;;;;;;;1.33;1.23;;;2.50;99.90;;;;;;5085960;28;20544;-71
2023/03/11 02:23:48;;;;;;;1.83;1.33;;;2.40;99.90;;;;;;5083143;28;20529;-71
2023/03/11 02:26:22;;;;;;;2.03;1.20;;;2.40;99.90;;;;;;5074365;28;21127;-71
2023/03/11 02:28:51;;;;;;;2.83;1.20;;;2.50;99.90;;;;;;5089027;28;20507;-71
2023/03/11 02:31:19;;;;;;;3.47;1.53;;;2.50;99.90;;;;;;5080963;28;20803;-71
2023/03/11 02:33:49;;;;;;;1.97;1.73;;;2.40;99.90;;;;;;5085500;28;20409;-71
2023/03/11 02:36:36;;;;;;;2.07;1.20;;;2.20;99.90;;;;;;5078603;28;20550;-71
2023/03/11 02:39:04;;;;;;;0.90;0.80;;;2.10;99.90;;;;;;5087404;28;20528;-71
2023/03/11 02:41:33;;;;;;;1.30;1.20;;;2.00;99.90;;;;;;5088886;28;20515;-71
2023/03/11 02:44:02;;;;;;;1.23;0.97;;;2.00;99.90;;;;;;5079466;28;20428;-71
2023/03/11 02:46:29;;;;;;;1.60;1.43;;;2.00;99.90;;;;;;5081828;28;20564;-71
2023/03/11 02:48:57;;;;;;;1.57;1.47;;;1.90;99.90;;;;;;5078249;28;20520;-71
2023/03/11 02:51:24;;;;;;;1.57;1.10;;;1.90;99.90;;;;;;5088149;28;20424;-71
2023/03/11 02:53:54;;;;;;;1.77;1.40;;;1.90;99.90;;;;;;5090741;28;20442;-71
2023/03/11 02:56:21;;;;;;;1.00;0.90;;;1.80;99.90;;;;;;5097414;28;20435;-71
2023/03/11 02:58:49;;;;;;;1.70;1.10;;;1.90;99.90;;;;;;5091136;28;20428;-71
2023/03/11 03:01:17;;;;;;;2.57;1.77;;;2.00;99.90;;;;;;5085327;28;20538;-71
2023/03/11 03:03:44;;;;;;;1.53;1.20;;;2.10;99.90;;;;;;5061857;28;20565;-71
2023/03/11 03:06:11;;;;;;;0.90;0.80;;;2.10;99.90;;;;;;5085063;28;20581;-71
2023/03/11 03:08:38;;;;;;;1.57;1.47;;;2.10;99.90;;;;;;5082623;28;20469;-71
2023/03/11 03:11:05;;;;;;;2.27;2.07;;;2.00;99.90;;;;;;5090728;28;20533;-71
2023/03/11 03:13:32;;;;;;;1.80;1.37;;;2.00;99.90;;;;;;5086437;28;20468;-71
2023/03/11 03:16:00;;;;;;;0.97;0.80;;;2.00;99.90;;;;;;5082292;28;20848;-71
2023/03/11 03:18:28;;;;;;;2.63;2.03;;;2.10;99.90;;;;;;5082613;28;20906;-71
2023/03/11 03:20:55;;;;;;;2.20;1.57;;;2.10;99.90;;;;;;5095782;28;20539;-71
2023/03/11 03:23:22;;;;;;;25.20;2.20;;;2.10;99.90;;;;;;5093029;28;20524;-71
2023/03/11 03:25:49;;;;;;;11.20;1.87;;;2.10;99.90;;;;;;5092642;28;20424;-71
2023/03/11 03:28:16;;;;;;;2.10;1.83;;;2.10;99.90;;;;;;5091190;28;20834;-71
2023/03/11 03:30:43;;;;;;;1.10;0.80;;;2.10;99.90;;;;;;5088031;28;20902;-71
2023/03/11 03:33:11;;;;;;;1.53;1.30;;;2.00;99.90;;;;;;5089859;28;20471;-71
2023/03/11 03:35:42;;;;;;;1.60;1.47;;;2.10;99.90;;;;;;5098142;28;20456;-71
2023/03/11 03:38:09;;;;;;;2.23;1.53;;;2.20;99.90;;;;;;5100561;28;20480;-71
2023/03/11 03:40:36;;;;;;;2.07;1.40;;;2.10;99.90;;;;;;5079136;28;20557;-71
2023/03/11 03:43:03;;;;;;;1.50;1.20;;;2.10;99.90;;;;;;5079264;28;20571;-71
2023/03/11 03:45:30;;;;;;;7.33;2.83;;;2.20;99.90;;;;;;5081889;28;20441;-71
2023/03/11 03:47:57;;;;;;;4.67;1.07;;;2.20;99.90;;;;;;5078075;28;21168;-71
2023/03/11 03:50:24;;;;;;;1.00;0.80;;;2.20;99.90;;;;;;5049306;28;20507;-71
2023/03/11 03:52:52;;;;;;;3.40;1.53;;;2.30;99.90;;;;;;5082842;28;20461;-71
2023/03/11 03:55:19;;;;;;;3.57;1.43;;;2.20;99.90;;;;;;5082207;28;20490;-71
2023/03/11 03:57:46;;;;;;;1.30;1.00;;;2.30;99.90;;;;;;5087780;28;20465;-71
2023/03/11 04:00:14;;;;;;;1.67;1.57;;;2.40;99.90;;;;;;5091625;28;20553;-71
2023/03/11 04:02:42;;;;;;;2.53;2.33;;;2.40;99.90;;;;;;5081386;28;21018;-71
2023/03/11 04:05:10;;;;;;;1.87;1.77;;;2.40;99.90;;;;;;5089268;28;20487;-71
2023/03/11 04:07:37;;;;;;;1.63;1.53;;;2.40;99.90;;;;;;5085879;28;20466;-71
2023/03/11 04:10:07;;;;;;;7.90;1.63;;;2.40;99.90;;;;;;5086543;28;20527;-71
2023/03/11 04:12:34;;;;;;;1.53;1.43;;;2.30;99.90;;;;;;5089256;28;20457;-71
2023/03/11 04:15:01;;;;;;;1.20;1.10;;;2.40;99.90;;;;;;5091183;28;20487;-71
2023/03/11 04:17:28;;;;;;;3.67;1.53;;;2.40;99.90;;;;;;5088418;28;20996;-71
2023/03/11 04:19:54;;;;;;;3.13;1.90;;;2.40;99.90;;;;;;5089642;28;20446;-71
2023/03/11 04:22:21;;;;;;;1.30;1.20;;;2.50;99.90;;;;;;5083306;28;20987;-70
2023/03/11 04:24:48;;;;;;;1.60;1.50;;;2.40;99.90;;;;;;5081160;28;20785;-70
2023/03/11 04:27:17;;;;;;;2.27;1.77;;;2.50;99.90;;;;;;5082047;28;20878;-70
2023/03/11 04:29:44;;;;;;;1.60;1.40;;;2.40;99.90;;;;;;5080270;28;20488;-70
2023/03/11 04:32:10;;;;;;;1.70;1.60;;;2.40;99.90;;;;;;5084230;28;20513;-70
2023/03/11 04:34:39;;;;;;;2.60;1.63;;;2.30;99.90;;;;;;5073312;28;21033;-70
2023/03/11 04:37:06;;;;;;;2.50;1.60;;;2.30;99.90;;;;;;5080434;28;20453;-70
2023/03/11 04:39:33;;;;;;;7.77;2.00;;;2.30;99.90;;;;;;5080519;28;20429;-70
2023/03/11 04:42:00;;;;;;;3.03;1.60;;;2.50;99.90;;;;;;5084066;28;20434;-71
2023/03/11 04:44:28;;;;;;;14.20;2.13;;;2.40;99.90;;;;;;5082983;28;20421;-70
2023/03/11 04:46:55;;;;;;;18.47;2.03;;;2.50;99.90;;;;;;5084247;28;20520;-70
2023/03/11 04:49:22;;;;;;;5.80;1.23;;;2.60;99.90;;;;;;5080221;28;20432;-71
2023/03/11 04:51:49;;;;;;;1.83;1.43;;;2.60;99.90;;;;;;5078306;28;20546;-70
2023/03/11 04:54:16;;;;;;;1.70;1.20;;;2.60;99.90;;;;;;5087320;28;20443;-70
2023/03/11 04:56:43;;;;;;;1.20;1.10;;;2.50;99.90;;;;;;5084044;28;20570;-70
2023/03/11 04:59:09;;;;;;;6.30;3.53;;;2.50;99.90;;;;;;5094653;28;20591;-70
2023/03/11 05:01:42;;;;;;;3.13;1.50;;;2.50;99.90;;;;;;5076204;28;20556;-70
2023/03/11 05:04:09;;;;;;;10.80;1.17;;;2.40;99.90;;;;;;5092355;28;20493;-70
2023/03/11 05:06:36;;;;;;;6.13;1.90;;;2.30;99.90;;;;;;5083698;28;20441;-70
2023/03/11 05:09:03;;;;;;;3.30;1.80;;;2.20;99.90;;;;;;5097824;28;20464;-70
2023/03/11 05:11:30;;;;;;;3.90;1.10;;;2.10;99.90;;;;;;5081952;28;20924;-70
2023/03/11 05:13:57;;;;;;;1.90;1.20;;;2.20;99.90;;;;;;5079979;28;20421;-70
2023/03/11 05:16:24;;;;;;;1.70;0.97;;;2.20;99.90;;;;;;5081074;28;20560;-70
2023/03/11 05:18:52;;;;;;;3.53;2.93;;;2.20;99.90;;;;;;5077354;28;20472;-70
2023/03/11 05:21:19;;;;;;;1.70;1.33;;;2.20;99.90;;;;;;5083590;28;20457;-70
2023/03/11 05:23:46;;;;;;;1.53;1.17;;;2.10;99.90;;;;;;5081412;28;20922;-70
2023/03/11 05:26:13;;;;;;;5.73;2.27;;;2.10;99.90;;;;;;5080768;28;20790;-70
2023/03/11 05:28:40;;;;;;;3.30;1.40;;;2.10;99.90;;;;;;5089202;28;20467;-70
2023/03/11 05:31:08;;;;;;;2.57;1.70;;;2.10;99.90;;;;;;5089151;28;20548;-70
2023/03/11 05:33:35;;;;;;;3.30;1.33;;;2.10;99.90;;;;;;5079593;28;20445;-70
2023/03/11 05:36:09;;;;;;;1.43;1.13;;;2.10;99.90;;;;;;5084308;28;20425;-70
2023/03/11 05:38:37;;;;;;;1.40;1.20;;;2.10;99.90;;;;;;5077942;28;20530;-70
2023/03/11 05:41:05;;;;;;;1.87;0.87;;;2.10;99.90;;;;;;5085456;28;20452;-70
2023/03/11 05:43:31;;;;;;;3.20;1.47;;;2.10;99.90;;;;;;5074939;28;20468;-70
2023/03/11 05:45:59;;;;;;;1.10;1.00;;;2.00;99.90;;;;;;5084810;28;20951;-70
2023/03/11 05:48:26;;;;;;;1.13;1.03;;;2.00;99.90;;;;;;5048283;28;20420;-70
2023/03/11 05:50:52;;;;;;;1.50;1.40;;;2.10;99.90;;;;;;5084571;28;20412;-70
2023/03/11 05:53:21;;;;;;;1.20;1.00;;;2.00;99.90;;;;;;5085432;28;20453;-70
2023/03/11 05:55:56;;;;;;;2.50;1.77;;;2.00;99.90;;;;;;5081892;28;20902;-71
2023/03/11 05:58:25;;;;;;;3.00;1.73;;;2.10;99.90;;;;;;5084529;28;20450;-71
2023/03/11 06:00:52;;;;;;;3.03;1.03;;;2.20;99.90;;;;;;5086216;28;20925;-71
2023/03/11 06:03:19;;;;;;;1.63;1.53;;;2.20;99.90;;;;;;5081971;28;21004;-71
2023/03/11 06:05:49;;;;;;;1.60;1.40;;;2.20;99.90;;;;;;5088912;28;20494;-72
2023/03/11 06:08:18;;;;;;;4.90;1.40;;;2.20;99.90;;;;;;5084588;28;20454;-72
2023/03/11 06:10:46;;;;;;;1.60;1.50;;;2.20;99.90;;;;;;5084239;28;20471;-72
2023/03/11 06:13:13;;;;;;;2.37;1.53;;;2.30;99.90;;;;;;5105717;28;20446;-72
2023/03/11 06:15:40;;;;;;;1.63;0.90;;;2.30;99.90;;;;;;5087041;28;20455;-71
2023/03/11 06:18:07;;;;;;;1.60;1.20;;;2.30;99.90;;;;;;5088969;28;20491;-72
2023/03/11 06:20:37;;;;;;;3.53;1.17;;;2.30;99.90;;;;;;5090964;28;20481;-72
2023/03/11 06:23:04;;;;;;;1.50;1.40;;;2.30;99.90;;;;;;5056433;28;20477;-72
2023/03/11 06:25:31;;;;;;;3.60;1.20;;;2.20;99.90;;;;;;5095045;28;20498;-70
2023/03/11 06:27:59;;;;;;;5.50;1.17;;;2.20;99.90;;;;;;5090053;28;20545;-70
2023/03/11 06:30:26;;;;;;;1.30;1.10;;;2.20;99.90;;;;;;5087201;28;20460;-71
2023/03/11 06:32:55;;;;;;;3.20;1.73;;;2.20;99.90;;;;;;5087728;28;20432;-71
2023/03/11 06:35:22;;;;;;;2.23;1.60;;;2.30;99.90;;;;;;5085401;28;20463;-71
2023/03/11 06:37:50;;;;;;;5.73;1.33;;;2.30;99.90;;;;;;5084704;28;20475;-71
2023/03/11 06:40:18;;;;;;;2.13;1.53;;;2.20;99.90;;;;;;5071611;28;20413;-71
2023/03/11 06:42:46;;;;;;;2.13;1.43;;;2.20;99.90;;;;;;5096279;28;20918;-71
2023/03/11 06:45:15;;;;;;;1.57;1.23;;;2.30;99.90;;;;;;5084708;28;20433;-70
2023/03/11 06:47:42;;;;;;;1.73;1.53;;;2.40;99.90;;;;;;5089688;28;20489;-71
2023/03/11 06:50:10;;;;;;;1.37;1.10;;;2.50;99.90;;;;;;5088565;28;20443;-70
2023/03/11 06:52:37;;;;;;;6.17;1.50;;;2.70;99.90;;;;;;5095278;28;21397;-70
2023/03/11 06:55:05;;;;;;;2.17;1.53;;;2.80;99.90;;;;;;5091301;28;20536;-71
2023/03/11 06:57:33;;;;;;;2.73;1.37;;;2.90;99.90;;;;;;5086690;28;20478;-71
2023/03/11 07:00:00;;;;;;;4.97;1.63;;;2.90;99.90;;;;;;5085474;28;20902;-71
2023/03/11 07:02:28;;;;;;;3.10;1.83;;;2.90;99.90;;;;;;5083527;28;20474;-71
2023/03/11 07:04:55;;;;;;;1.17;1.07;;;2.90;99.90;;;;;;5086898;28;20442;-71
2023/03/11 07:07:22;;;;;;;1.43;1.33;;;3.10;99.90;;;;;;5086375;28;20441;-71
2023/03/11 07:09:49;;;;;;;1.63;1.10;;;3.10;99.90;;;;;;5085966;28;20503;-71
2023/03/11 07:12:16;;;;;;;1.00;0.80;;;3.20;99.90;;;;;;5083026;28;20936;-71
2023/03/11 07:14:43;;;;;;;2.43;2.23;;;3.00;99.90;;;;;;5084858;28;20504;-71
2023/03/11 07:17:10;;;;;;;3.47;1.40;;;2.90;99.90;;;;;;5083553;28;20519;-71
2023/03/11 07:19:39;;;;;;;1.20;1.10;;;2.80;99.90;;;;;;5081068;28;20465;-71
2023/03/11 07:22:06;;;;;;;1.17;1.07;;;2.70;99.90;;;;;;5078899;28;20558;-71
2023/03/11 07:24:33;;;;;;;4.93;2.13;;;2.80;99.90;;;;;;5076671;28;20436;-71
2023/03/11 07:27:00;;;;;;;1.20;0.90;;;2.90;99.90;;;;;;5086916;28;20517;-71
2023/03/11 07:29:27;;;;;;;1.67;1.20;;;3.00;99.90;;;;;;5086652;28;20463;-71
2023/03/11 07:31:54;;;;;;;1.40;1.30;;;3.10;99.90;;;;;;5079468;28;20443;-71
2023/03/11 07:34:21;;;;;;;1.93;1.33;;;3.10;99.90;;;;;;5078426;28;20451;-71
2023/03/11 07:36:49;;;;;;;1.73;1.53;;;3.30;99.90;;;;;;5085488;28;20486;-71
2023/03/11 07:39:19;;;;;;;1.37;1.27;;;3.40;99.90;;;;;;5086842;28;20430;-71
2023/03/11 07:41:47;;;;;;;3.67;1.67;;;3.40;99.90;;;;;;5082910;28;20868;-72
2023/03/11 07:44:15;;;;;;;1.77;1.33;;;3.50;99.90;;;;;;5083747;28;20475;-71
2023/03/11 07:46:42;;;;;;;1.43;1.27;;;3.80;99.90;;;;;;5084536;28;20477;-71
2023/03/11 07:49:09;;;;;;;1.20;1.10;;;4.30;99.90;;;;;;5095020;28;20549;-71
2023/03/11 07:51:39;;;;;;;1.50;1.23;;;4.40;99.90;;;;;;5081974;28;20443;-72
2023/03/11 07:54:08;;;;;;;3.67;2.03;;;4.70;99.90;;;;;;5090681;28;20464;-71
2023/03/11 07:56:35;;;;;;;2.50;1.97;;;4.70;99.90;;;;;;5060626;28;20445;-71
2023/03/11 07:59:06;;;;;;;1.43;1.23;;;4.80;99.90;;;;;;5079778;28;20462;-71
2023/03/11 08:01:37;;;;;;;1.53;1.33;;;4.80;99.90;;;;;;5080762;28;20531;-71
2023/03/11 08:04:08;;;;;;;1.63;1.00;;;4.90;99.90;;;;;;5088786;28;20516;-71
2023/03/11 08:06:36;;;;;;;1.97;1.87;;;4.80;99.90;;;;;;5082972;28;20543;-71
2023/03/11 08:09:06;;;;;;;1.93;1.47;;;4.70;99.90;;;;;;5087939;28;20555;-71
2023/03/11 08:11:36;;;;;;;1.63;1.17;;;4.80;99.90;;;;;;5087652;28;20504;-71
2023/03/11 08:14:03;;;;;;;2.60;1.30;;;5.30;99.90;;;;;;5091096;28;20469;-71
2023/03/11 08:16:33;;;;;;;2.07;1.47;;;5.60;99.90;;;;;;5079278;28;20551;-71
2023/03/11 08:19:00;;;;;;;4.90;1.20;;;5.60;99.90;;;;;;5087815;28;20436;-71
2023/03/11 08:21:30;;;;;;;1.77;1.27;;;5.50;99.90;;;;;;5086282;28;20501;-71
2023/03/11 08:23:58;;;;;;;6.30;1.77;;;5.60;99.90;;;;;;5086208;28;20429;-71
2023/03/11 08:26:26;;;;;;;1.10;1.00;;;6.10;99.90;;;;;;5078150;28;20481;-70
2023/03/11 08:28:54;;;;;;;2.13;1.33;;;6.00;99.90;;;;;;5077067;28;20474;-70
2023/03/11 08:31:24;;;;;;;2.07;1.40;;;5.90;99.90;;;;;;5091446;28;20457;-70
2023/03/11 08:33:52;;;;;;;1.00;0.90;;;6.00;99.90;;;;;;5081222;28;20449;-70
2023/03/11 08:36:20;;;;;;;7.50;1.37;;;6.50;99.90;;;;;;5082581;28;20466;-70
2023/03/11 08:38:48;;;;;;;16.57;2.63;;;7.10;99.90;;;;;;5080793;28;20548;-70
2023/03/11 08:41:15;;;;;;;5.43;1.13;;;7.60;99.90;;;;;;5082702;28;20539;-70
2023/03/11 08:43:43;;;;;;;1.70;1.27;;;8.30;99.90;;;;;;5085146;28;20521;-70
2023/03/11 08:46:17;;;;;;;2.27;1.20;;;8.90;99.90;;;;;;5088684;28;20488;-71
2023/03/11 08:48:44;;;;;;;4.60;1.20;;;9.80;99.90;;;;;;5099385;28;20420;-71
2023/03/11 08:51:11;;;;;;;1.37;1.00;;;10.10;99.90;;;;;;5084601;28;20454;-70
2023/03/11 08:53:39;;;;;;;3.40;1.13;;;9.90;99.90;;;;;;5084759;28;20479;-70
2023/03/11 08:56:09;;;;;;;1.53;0.90;;;10.20;99.90;;;;;;5074831;28;20518;-71
2023/03/11 08:58:36;;;;;;;1.67;1.17;;;10.40;99.90;;;;;;5087994;28;20541;-71
2023/03/11 09:01:05;;;;;;;1.30;1.00;;;10.60;99.90;;;;;;5092325;28;20636;-71
2023/03/11 09:03:35;;;;;;;1.30;1.03;;;10.60;99.90;;;;;;5094550;28;20457;-71
2023/03/11 09:06:03;;;;;;;5.43;1.33;;;10.80;99.90;;;;;;5082884;28;20457;-70
2023/03/11 09:08:31;;;;;;;3.13;1.37;;;10.70;99.90;;;;;;5076857;28;20476;-70
2023/03/11 09:10:58;;;;;;;3.03;1.03;;;11.10;99.90;;;;;;5083671;28;20477;-70
2023/03/11 09:13:25;;;;;;;6.87;2.47;;;11.50;99.90;;;;;;5080519;28;20477;-70
2023/03/11 09:15:52;;;;;;;2.90;1.10;;;11.90;99.90;;;;;;5077877;28;20883;-70
2023/03/11 09:18:19;;;;;;;9.43;1.50;;;12.60;96.10;;;;;;5083785;28;20471;-70
2023/03/11 09:20:47;;;;;;;4.67;1.40;;;12.70;96.20;;;;;;5083740;28;20508;-71
2023/03/11 09:23:16;;;;;;;1.90;1.00;;;12.90;95.80;;;;;;5081372;28;20634;-71
2023/03/11 09:25:43;;;;;;;2.43;1.10;;;13.50;95.20;;;;;;5080943;28;20451;-71
2023/03/11 09:28:10;;;;;;;1.97;1.10;;;13.60;94.50;;;;;;5078358;28;21014;-71
2023/03/11 09:30:37;;;;;;;2.50;1.33;;;13.80;93.40;;;;;;5084940;28;20542;-71
2023/03/11 09:33:05;;;;;;;4.87;1.07;;;13.80;91.00;;;;;;5080411;28;20465;-71
2023/03/11 09:35:33;;;;;;;2.10;1.00;;;13.80;89.90;;;;;;5090523;28;20521;-71
2023/03/11 09:38:01;;;;;;;4.57;1.40;;;14.50;90.80;;;;;;5079753;28;20466;-71
2023/03/11 09:40:43;;;;;;;2.17;1.10;;;14.40;87.20;;;;;;5078200;28;20840;-71
2023/03/11 09:43:16;;;;;;;2.20;1.00;;;14.30;88.30;;;;;;5084574;28;21029;-71
2023/03/11 09:45:51;;;;;;;2.13;1.30;;;14.00;85.70;;;;;;5074117;28;20489;-71
2023/03/11 09:48:23;;;;;;;1.17;1.00;;;14.50;88.70;;;;;;5087694;28;20464;-71
2023/03/11 09:50:57;;;;;;;1.93;1.10;;;14.80;78.00;;;;;;5092547;28;20434;-71
2023/03/11 09:53:36;;;;;;;7.00;1.60;;;15.50;75.00;;;;;;5075813;28;20461;-71
2023/03/11 09:56:07;;;;;;;5.30;3.43;;;15.50;75.20;;;;;;5078914;28;20547;-71
2023/03/11 09:58:39;;;;;;;1.83;1.20;;;13.80;70.20;;;;;;5087966;28;20548;-71
2023/03/11 10:01:15;;;;;;;1.37;1.00;;;12.10;74.50;;;;;;5085899;28;20545;-71
2023/03/11 10:03:43;;;;;;;3.23;1.03;;;12.20;81.80;;;;;;5086288;28;20441;-71
2023/03/11 10:06:16;;;;;;;2.03;1.10;;;12.90;79.20;;;;;;5092449;28;20556;-71
2023/03/11 10:08:48;;;;;;;1.70;0.90;;;13.30;72.20;;;;;;5088049;28;20641;-71
2023/03/11 10:11:48;;;;;;;1.97;1.77;;;14.00;73.20;;;;;;5098892;28;20481;-71
2023/03/11 10:14:38;;;;;;;1.87;1.00;;;13.60;73.50;;;;;;5069627;28;20536;-71
2023/03/11 10:17:14;;;;;;;5.20;2.30;;;13.60;71.80;;;;;;5072357;28;20986;-70
2023/03/11 10:19:51;;;;;;;1.93;1.60;;;14.10;74.20;;;;;;5089022;28;20536;-70
2023/03/11 10:22:26;;;;;;;1.83;1.53;;;15.00;73.00;;;;;;5080243;28;20488;-72
2023/03/11 10:25:05;;;;;;;2.03;1.20;;;14.80;71.40;;;;;;5090109;28;20495;-71
2023/03/11 10:27:40;;;;;;;3.63;0.90;;;14.70;70.20;;;;;;5077630;28;20558;-71
2023/03/11 10:30:19;;;;;;;1.30;1.03;;;15.90;71.20;;;;;;5078768;28;20529;-71
2023/03/11 10:32:52;;;;;;;1.63;1.07;;;15.70;67.80;;;;;;5093082;28;20514;-71
2023/03/11 10:35:21;;;;;;;1.10;0.80;;;13.90;67.50;;;;;;5106060;28;20447;-72
2023/03/11 10:37:53;;;;;;;1.33;0.93;;;12.10;73.60;;;;;;5098453;28;20560;-71
2023/03/11 10:40:28;;;;;;;1.20;0.90;;;12.20;76.10;;;;;;5078613;28;20542;-72
2023/03/11 10:42:57;;;;;;;8.80;1.00;;;12.90;75.50;;;;;;5075228;28;20556;-71
2023/03/11 10:45:25;;;;;;;1.20;0.80;;;12.50;74.60;;;;;;5086492;28;20445;-71
2023/03/11 10:47:52;;;;;;;2.63;1.50;;;11.70;74.30;;;;;;5086717;28;20608;-71
2023/03/11 10:50:22;;;;;;;1.30;1.00;;;11.90;78.70;;;;;;5087499;28;20488;-72
2023/03/11 10:53:16;;;;;;;1.40;1.10;;;12.70;78.10;;;;;;5081424;28;20436;-71
2023/03/11 10:55:48;;;;;;;1.30;0.90;;;13.20;71.10;;;;;;5069898;28;20463;-71
2023/03/11 10:58:17;;;;;;;3.07;1.70;;;13.20;72.00;;;;;;5074911;28;20572;-71
2023/03/11 11:00:45;;;;;;;1.27;0.90;;;12.50;70.90;;;;;;5073301;28;20479;-71
2023/03/11 11:03:23;;;;;;;11.03;3.87;;;13.70;72.20;;;;;;5074403;28;20569;-71
2023/03/11 11:05:59;;;;;;;1.83;1.10;;;14.80;70.00;;;;;;5087915;28;20599;-71
2023/03/11 11:08:26;;;;;;;1.20;0.80;;;14.50;70.60;;;;;;5084566;28;20506;-71
2023/03/11 11:10:56;;;;;;;1.60;1.00;;;14.20;69.30;;;;;;5085920;28;20584;-71
2023/03/11 11:13:24;;;;;;;1.60;1.30;;;14.10;71.40;;;;;;5091379;28;20449;-71
2023/03/11 11:16:00;;;;;;;2.33;1.20;;;14.30;68.70;;;;;;5085310;28;20512;-70
2023/03/11 11:18:29;;;;;;;1.30;0.90;;;14.80;68.40;;;;;;5099551;28;20457;-71
2023/03/11 11:21:03;;;;;;;1.57;1.03;;;15.90;64.10;;;;;;5103494;28;20465;-71
2023/03/11 11:23:38;;;;;;;3.83;1.57;;;15.70;64.60;;;;;;5102828;28;20512;-71
2023/03/11 11:26:15;;;;;;;1.83;1.20;;;16.80;63.00;;;;;;5084986;28;20497;-71
2023/03/11 11:28:42;;;;;;;2.80;1.20;;;16.70;61.30;;;;;;5082149;28;20454;-71
2023/03/11 11:31:23;;;;;;;1.93;1.17;;;17.10;57.80;;;;;;5082003;28;20445;-71
2023/03/11 11:33:51;;;;;;;2.03;0.97;;;16.90;61.20;;;;;;5082794;28;20451;-71
2023/03/11 11:36:23;;;;;;;1.20;0.80;;;16.30;63.20;;;;;;5079572;28;20990;-71
2023/03/11 11:38:52;;;;;;;1.10;0.80;;;16.10;61.00;;;;;;5090125;28;20457;-71
2023/03/11 11:41:23;;;;;;;1.60;1.00;;;16.30;60.90;;;;;;5077839;28;20459;-71
2023/03/11 11:43:52;;;;;;;8.73;1.20;;;17.00;61.70;;;;;;5081813;28;20532;-71
2023/03/11 11:46:25;;;;;;;3.23;1.07;;;17.60;60.40;;;;;;5089730;28;20465;-71
2023/03/11 11:49:11;;;;;;;1.40;1.10;;;17.20;56.60;;;;;;5084117;28;20465;-71
2023/03/11 11:51:42;;;;;;;4.23;1.20;;;15.30;56.20;;;;;;5081324;28;20435;-70
2023/03/11 11:54:17;;;;;;;2.77;0.97;;;14.70;58.20;;;;;;5090275;28;20460;-71
2023/03/11 11:56:45;;;;;;;2.17;1.40;;;13.90;58.00;;;;;;5086064;28;20483;-70
2023/03/11 11:59:20;;;;;;;1.80;0.90;;;13.70;57.20;;;;;;5080558;28;20512;-70
2023/03/11 12:02:01;;;;;;;2.17;1.33;;;13.00;56.60;;;;;;5086694;28;21027;-70
2023/03/11 12:04:37;;;;;;;2.30;1.00;;;12.80;57.20;;;;;;5080742;28;20525;-70
2023/03/11 12:07:13;;;;;;;2.43;1.10;;;13.30;57.90;;;;;;5086181;28;20528;-70
2023/03/11 12:09:50;;;;;;;1.80;1.03;;;13.60;59.40;;;;;;5087558;28;20858;-71
2023/03/11 12:12:28;;;;;;;2.07;1.10;;;14.50;57.50;;;;;;5087391;28;20474;-71
2023/03/11 12:15:06;;;;;;;2.30;1.00;;;15.30;56.10;;;;;;5089410;28;20422;-71
2023/03/11 12:17:38;;;;;;;1.30;1.10;;;15.90;53.50;;;;;;5083637;28;20998;-71
2023/03/11 12:20:11;;;;;;;1.50;1.30;;;15.90;51.30;;;;;;5088868;28;20771;-71
2023/03/11 12:23:01;;;;;;;1.17;0.93;;;16.40;52.60;;;;;;5083596;28;20497;-71
2023/03/11 12:25:33;;;;;;;2.07;1.00;;;16.30;55.20;;;;;;5080627;28;20549;-71
2023/03/11 12:28:14;;;;;;;1.13;0.80;;;15.70;56.10;;;;;;5083604;28;20893;-72
2023/03/11 12:30:44;;;;;;;1.20;0.87;;;15.40;59.00;;;;;;5075304;28;20461;-71
2023/03/11 12:33:17;;;;;;;3.67;1.00;;;14.30;55.70;;;;;;5084856;28;20487;-71
2023/03/11 12:35:52;;;;;;;4.30;1.47;;;14.60;58.10;;;;;;5089090;28;20438;-71
2023/03/11 12:38:24;;;;;;;1.00;0.70;;;15.00;57.20;;;;;;5076839;28;20434;-70
2023/03/11 12:41:04;;;;;;;3.33;1.17;;;15.60;56.50;;;;;;5076239;28;20486;-70
2023/03/11 12:44:08;;;;;;;3.70;1.23;;;15.20;54.90;;;;;;5082513;28;20506;-71
2023/03/11 12:47:32;;;;;;;1.53;1.23;;;15.00;57.20;;;;;;5092974;28;20489;-70
2023/03/11 12:50:34;;;;;;;2.10;1.10;;;15.80;56.40;;;;;;5075436;28;20458;-70
2023/03/11 12:53:06;;;;;;;1.53;1.33;;;15.70;54.10;;;;;;5080584;28;20910;-70
2023/03/11 12:56:00;;;;;;;1.30;1.00;;;15.20;51.10;;;;;;5092030;28;20442;-71
2023/03/11 12:58:56;;;;;;;2.43;1.57;;;15.10;50.40;;;;;;5095807;28;20444;-71
2023/03/11 13:01:44;;;;;;;2.50;1.10;;;16.80;52.50;;;;;;5078974;28;20434;-72
2023/03/11 13:04:40;;;;;;;2.07;1.20;;;18.10;53.00;;;;;;5090823;28;20478;-72
2023/03/11 13:07:52;;;;;;;1.17;0.93;;;19.20;51.50;;;;;;5088291;28;20477;-72